sensor_id;sensor_type;location;lat;lon;timestamp;pressure;altitude;pressure_sealevel;temperature;humidity
70314;BME280;71040;47.526;18.986;2024-01-30T00:00:23;102140.78;;;5.00;73.71
70314;BME280;71040;47.526;18.986;2024-01-30T00:05:23;102127.78;;;4.98;74.07
70314;BME280;71040;47.526;18.986;2024-01-30T00:10:28;102134.66;;;4.96;74.23
70314;BME280;71040;47.526;18.986;2024-01-30T00:15:29;102127.75;;;4.95;74.02
70314;BME280;71040;47.526;18.986;2024-01-30T00:20:31;102132.06;;;4.95;74.22
70314;BME280;71040;47.526;18.986;2024-01-30T00:25:32;102133.75;;;4.93;74.47
70314;BME280;71040;47.526;18.986;2024-01-30T00:30:33;102136.31;;;4.91;73.90
70314;BME280;71040;47.526;18.986;2024-01-30T00:35:34;102146.66;;;4.90;74.24
70314;BME280;71040;47.526;18.986;2024-01-30T00:40:34;102154.44;;;4.90;74.58
70314;BME280;71040;47.526;18.986;2024-01-30T00:45:34;102143.94;;;4.82;74.29
70314;BME280;71040;47.526;18.986;2024-01-30T00:50:35;102150.06;;;4.87;73.87
70314;BME280;71040;47.526;18.986;2024-01-30T00:55:35;102148.28;;;4.85;73.91
70314;BME280;71040;47.526;18.986;2024-01-30T01:00:38;102141.41;;;4.84;74.02
70314;BME280;71040;47.526;18.986;2024-01-30T01:05:39;102144.84;;;4.84;73.80
70314;BME280;71040;47.526;18.986;2024-01-30T01:10:39;102134.47;;;4.83;74.02
70314;BME280;71040;47.526;18.986;2024-01-30T01:15:40;102141.34;;;4.82;73.54
70314;BME280;71040;47.526;18.986;2024-01-30T01:20:42;102137.88;;;4.80;74.61
70314;BME280;71040;47.526;18.986;2024-01-30T01:25:43;102129.22;;;4.80;74.10
70314;BME280;71040;47.526;18.986;2024-01-30T01:30:43;102136.13;;;4.79;74.40
70314;BME280;71040;47.526;18.986;2024-01-30T01:35:44;102124.88;;;4.79;73.80
70314;BME280;71040;47.526;18.986;2024-01-30T01:40:47;102131.75;;;4.77;74.63
70314;BME280;71040;47.526;18.986;2024-01-30T01:45:47;102122.22;;;4.76;73.77
70314;BME280;71040;47.526;18.986;2024-01-30T01:50:48;102129.97;;;4.74;74.18
70314;BME280;71040;47.526;18.986;2024-01-30T01:56:11;102118.72;;;4.73;74.73
70314;BME280;71040;47.526;18.986;2024-01-30T02:01:21;102118.72;;;4.72;73.99
70314;BME280;71040;47.526;18.986;2024-01-30T02:06:21;102123.00;;;4.70;74.35
70314;BME280;71040;47.526;18.986;2024-01-30T02:11:25;102120.44;;;4.70;73.87
70314;BME280;71040;47.526;18.986;2024-01-30T02:16:28;102114.34;;;4.68;74.18
70314;BME280;71040;47.526;18.986;2024-01-30T02:21:32;102111.75;;;4.68;74.07
70314;BME280;71040;47.526;18.986;2024-01-30T02:26:33;102116.94;;;4.68;74.09
70314;BME280;71040;47.526;18.986;2024-01-30T02:31:33;102112.56;;;4.65;74.13
70314;BME280;71040;47.526;18.986;2024-01-30T02:36:34;102109.09;;;4.65;74.49
70314;BME280;71040;47.526;18.986;2024-01-30T02:41:34;102114.25;;;4.63;74.32
70314;BME280;71040;47.526;18.986;2024-01-30T02:46:34;102118.56;;;4.63;73.87
70314;BME280;71040;47.526;18.986;2024-01-30T02:51:37;102109.91;;;4.61;74.06
70314;BME280;71040;47.526;18.986;2024-01-30T02:56:40;102115.97;;;4.61;73.51
70314;BME280;71040;47.526;18.986;2024-01-30T03:01:44;102105.53;;;4.58;73.61
70314;BME280;71040;47.526;18.986;2024-01-30T03:06:45;102116.78;;;4.59;74.43
70314;BME280;71040;47.526;18.986;2024-01-30T03:11:47;102107.25;;;4.58;74.24
70314;BME280;71040;47.526;18.986;2024-01-30T03:16:47;102114.97;;;4.55;74.03
70314;BME280;71040;47.526;18.986;2024-01-30T03:21:47;102121.91;;;4.56;74.10
70314;BME280;71040;47.526;18.986;2024-01-30T03:26:48;102121.88;;;4.54;74.15
70314;BME280;71040;47.526;18.986;2024-01-30T03:31:51;102122.72;;;4.53;74.51
70314;BME280;71040;47.526;18.986;2024-01-30T03:36:51;102114.91;;;4.52;74.10
70314;BME280;71040;47.526;18.986;2024-01-30T03:41:54;102113.16;;;4.51;74.14
70314;BME280;71040;47.526;18.986;2024-01-30T03:46:54;102101.94;;;4.49;74.19
70314;BME280;71040;47.526;18.986;2024-01-30T03:51:57;102100.22;;;4.49;74.12
70314;BME280;71040;47.526;18.986;2024-01-30T03:56:57;102101.06;;;4.48;73.93
70314;BME280;71040;47.526;18.986;2024-01-30T04:01:59;102100.16;;;4.46;74.02
70314;BME280;71040;47.526;18.986;2024-01-30T04:07:02;102099.28;;;4.46;73.77
70314;BME280;71040;47.526;18.986;2024-01-30T04:12:05;102086.25;;;4.43;73.77
70314;BME280;71040;47.526;18.986;2024-01-30T04:17:05;102088.81;;;4.41;74.47
70314;BME280;71040;47.526;18.986;2024-01-30T04:22:06;102096.66;;;4.44;73.80
70314;BME280;71040;47.526;18.986;2024-01-30T04:27:06;102089.69;;;4.42;73.96
70314;BME280;71040;47.526;18.986;2024-01-30T04:32:07;102094.00;;;4.41;73.73
70314;BME280;71040;47.526;18.986;2024-01-30T04:37:07;102097.41;;;4.38;74.11
70314;BME280;71040;47.526;18.986;2024-01-30T04:42:08;102094.81;;;4.37;74.06
70314;BME280;71040;47.526;18.986;2024-01-30T04:47:08;102092.16;;;4.34;74.10
70314;BME280;71040;47.526;18.986;2024-01-30T04:52:11;102098.22;;;4.34;74.24
70314;BME280;71040;47.526;18.986;2024-01-30T04:57:11;102099.94;;;4.34;74.16
70314;BME280;71040;47.526;18.986;2024-01-30T05:02:12;102104.22;;;4.33;74.04
70314;BME280;71040;47.526;18.986;2024-01-30T05:07:15;102111.13;;;4.33;73.94
70314;BME280;71040;47.526;18.986;2024-01-30T05:12:15;102111.94;;;4.30;74.17
70314;BME280;71040;47.526;18.986;2024-01-30T05:17:18;102117.13;;;4.30;73.77
70314;BME280;71040;47.526;18.986;2024-01-30T05:22:18;102132.66;;;4.30;73.73
70314;BME280;71040;47.526;18.986;2024-01-30T05:27:21;102136.09;;;4.29;73.95
70314;BME280;71040;47.526;18.986;2024-01-30T05:32:24;102134.31;;;4.27;74.13
70314;BME280;71040;47.526;18.986;2024-01-30T05:37:27;102136.91;;;4.25;74.30
70314;BME280;71040;47.526;18.986;2024-01-30T05:42:27;102138.63;;;4.25;73.93
70314;BME280;71040;47.526;18.986;2024-01-30T05:47:28;102137.75;;;4.24;73.55
70314;BME280;71040;47.526;18.986;2024-01-30T05:52:28;102141.19;;;4.25;73.50
70314;BME280;71040;47.526;18.986;2024-01-30T05:57:31;102142.03;;;4.24;73.88
70314;BME280;71040;47.526;18.986;2024-01-30T06:02:34;102136.78;;;4.21;74.23
70314;BME280;71040;47.526;18.986;2024-01-30T06:07:36;102129.88;;;4.20;74.00
70314;BME280;71040;47.526;18.986;2024-01-30T06:12:40;102144.53;;;4.19;74.05
70314;BME280;71040;47.526;18.986;2024-01-30T06:17:40;102141.94;;;4.19;74.04
70314;BME280;71040;47.526;18.986;2024-01-30T06:22:43;102142.75;;;4.17;74.31
70314;BME280;71040;47.526;18.986;2024-01-30T06:27:45;102146.22;;;4.17;74.34
70314;BME280;71040;47.526;18.986;2024-01-30T06:32:46;102140.16;;;4.15;73.77
70314;BME280;71040;47.526;18.986;2024-01-30T06:37:46;102144.47;;;4.16;73.89
70314;BME280;71040;47.526;18.986;2024-01-30T06:42:47;102146.19;;;4.14;73.92
70314;BME280;71040;47.526;18.986;2024-01-30T06:47:47;102160.00;;;4.15;74.61
70314;BME280;71040;47.526;18.986;2024-01-30T06:52:50;102156.50;;;4.13;74.10
70314;BME280;71040;47.526;18.986;2024-01-30T06:57:51;102154.75;;;4.12;74.05
70314;BME280;71040;47.526;18.986;2024-01-30T07:02:51;102154.75;;;4.12;74.24
70314;BME280;71040;47.526;18.986;2024-01-30T07:07:54;102152.97;;;4.09;74.18
70314;BME280;71040;47.526;18.986;2024-01-30T07:12:57;102159.00;;;4.10;74.04
70314;BME280;71040;47.526;18.986;2024-01-30T07:18:00;102164.19;;;4.10;73.76
70314;BME280;71040;47.526;18.986;2024-01-30T07:23:00;102165.91;;;4.09;74.03
70314;BME280;71040;47.526;18.986;2024-01-30T07:28:01;102158.06;;;4.06;74.42
70314;BME280;71040;47.526;18.986;2024-01-30T07:33:04;102157.25;;;4.09;74.42
70314;BME280;71040;47.526;18.986;2024-01-30T07:38:04;102158.09;;;4.08;74.41
70314;BME280;71040;47.526;18.986;2024-01-30T07:43:07;102146.00;;;4.07;74.80
70314;BME280;71040;47.526;18.986;2024-01-30T07:48:08;102146.81;;;4.04;74.65
70314;BME280;71040;47.526;18.986;2024-01-30T07:53:08;102145.97;;;4.05;74.54
70314;BME280;71040;47.526;18.986;2024-01-30T07:58:09;102144.22;;;4.04;74.45
70314;BME280;71040;47.526;18.986;2024-01-30T08:03:10;102145.09;;;4.05;74.89
70314;BME280;71040;47.526;18.986;2024-01-30T08:08:13;102148.56;;;4.04;74.67
70314;BME280;71040;47.526;18.986;2024-01-30T08:13:13;102154.56;;;4.04;74.83
70314;BME280;71040;47.526;18.986;2024-01-30T08:18:13;102150.28;;;4.03;75.18
70314;BME280;71040;47.526;18.986;2024-01-30T08:23:16;102147.59;;;4.00;75.03
70314;BME280;71040;47.526;18.986;2024-01-30T08:28:19;102156.28;;;4.02;74.64
70314;BME280;71040;47.526;18.986;2024-01-30T08:33:20;102154.53;;;4.01;74.93
70314;BME280;71040;47.526;18.986;2024-01-30T08:38:20;102154.53;;;4.01;75.29
70314;BME280;71040;47.526;18.986;2024-01-30T08:43:21;102166.59;;;4.00;75.08
70314;BME280;71040;47.526;18.986;2024-01-30T08:48:21;102162.31;;;4.01;75.19
70314;BME280;71040;47.526;18.986;2024-01-30T08:53:22;102156.22;;;3.99;75.19
70314;BME280;71040;47.526;18.986;2024-01-30T08:58:25;102156.22;;;3.99;75.75
70314;BME280;71040;47.526;18.986;2024-01-30T09:03:28;102149.28;;;3.98;75.63
70314;BME280;71040;47.526;18.986;2024-01-30T09:08:31;102150.13;;;3.97;75.24
70314;BME280;71040;47.526;18.986;2024-01-30T09:13:32;102153.59;;;3.97;75.98
70314;BME280;71040;47.526;18.986;2024-01-30T09:18:32;102152.72;;;3.97;75.97
70314;BME280;71040;47.526;18.986;2024-01-30T09:23:39;102146.66;;;3.96;75.70
70314;BME280;71040;47.526;18.986;2024-01-30T09:28:40;102147.53;;;3.97;75.82
70314;BME280;71040;47.526;18.986;2024-01-30T09:33:42;102142.25;;;3.92;76.04
70314;BME280;71040;47.526;18.986;2024-01-30T09:38:46;102145.78;;;3.96;75.76
70314;BME280;71040;47.526;18.986;2024-01-30T09:43:57;102146.63;;;3.95;76.22
70314;BME280;71040;47.526;18.986;2024-01-30T09:49:00;102137.13;;;3.94;76.08
70314;BME280;71040;47.526;18.986;2024-01-30T09:54:04;102142.31;;;3.95;76.53
70314;BME280;71040;47.526;18.986;2024-01-30T09:59:08;102141.44;;;3.95;75.82
70314;BME280;71040;47.526;18.986;2024-01-30T10:04:09;102149.22;;;3.95;76.27
70314;BME280;71040;47.526;18.986;2024-01-30T10:09:11;102145.78;;;3.96;75.94
70314;BME280;71040;47.526;18.986;2024-01-30T10:14:13;102142.31;;;3.95;76.00
70314;BME280;71040;47.526;18.986;2024-01-30T10:19:16;102139.75;;;3.95;76.20
70314;BME280;71040;47.526;18.986;2024-01-30T10:24:23;102129.31;;;3.92;76.24
70314;BME280;71040;47.526;18.986;2024-01-30T10:29:24;102128.50;;;3.95;76.70
70314;BME280;71040;47.526;18.986;2024-01-30T10:34:24;102130.22;;;3.94;76.53
70314;BME280;71040;47.526;18.986;2024-01-30T10:39:28;102122.47;;;3.94;76.30
70314;BME280;71040;47.526;18.986;2024-01-30T10:44:30;102112.13;;;3.94;76.74
70314;BME280;71040;47.526;18.986;2024-01-30T10:49:33;102107.81;;;3.95;76.69
70314;BME280;71040;47.526;18.986;2024-01-30T10:54:37;102096.59;;;3.94;76.83
70314;BME280;71040;47.526;18.986;2024-01-30T10:59:38;102090.56;;;3.95;76.30
70314;BME280;71040;47.526;18.986;2024-01-30T11:04:40;102079.34;;;3.95;77.35
70314;BME280;71040;47.526;18.986;2024-01-30T11:09:51;102076.75;;;3.95;76.70
70314;BME280;71040;47.526;18.986;2024-01-30T11:15:08;102075.03;;;3.95;76.94
70314;BME280;71040;47.526;18.986;2024-01-30T11:20:15;102074.19;;;3.96;76.38
70314;BME280;71040;47.526;18.986;2024-01-30T11:25:20;102065.56;;;3.96;76.71
70314;BME280;71040;47.526;18.986;2024-01-30T11:35:34;102064.69;;;3.95;77.10
70314;BME280;71040;47.526;18.986;2024-01-30T11:40:36;102056.94;;;3.97;76.56
70314;BME280;71040;47.526;18.986;2024-01-30T11:45:40;102044.00;;;3.97;76.86
70314;BME280;71040;47.526;18.986;2024-01-30T11:50:41;102037.94;;;3.95;77.01
70314;BME280;71040;47.526;18.986;2024-01-30T11:55:41;102038.84;;;3.97;76.90
70314;BME280;71040;47.526;18.986;2024-01-30T12:00:42;102030.19;;;3.96;76.96
70314;BME280;71040;47.526;18.986;2024-01-30T12:05:43;102028.50;;;3.97;76.73
70314;BME280;71040;47.526;18.986;2024-01-30T12:10:46;102017.28;;;3.98;77.08
70314;BME280;71040;47.526;18.986;2024-01-30T12:15:46;102013.00;;;3.98;76.61
70314;BME280;71040;47.526;18.986;2024-01-30T12:20:57;102003.50;;;3.99;76.80
70314;BME280;71040;47.526;18.986;2024-01-30T12:25:58;102002.63;;;3.98;76.92
70314;BME280;71040;47.526;18.986;2024-01-30T12:31:02;102002.66;;;4.00;76.80
70314;BME280;71040;47.526;18.986;2024-01-30T12:36:04;102000.09;;;4.00;77.05
70314;BME280;71040;47.526;18.986;2024-01-30T12:41:07;101994.91;;;4.00;76.68
70314;BME280;71040;47.526;18.986;2024-01-30T12:46:07;101983.72;;;4.01;77.20
70314;BME280;71040;47.526;18.986;2024-01-30T12:51:10;101978.53;;;4.01;76.62
70314;BME280;71040;47.526;18.986;2024-01-30T12:56:13;101973.34;;;4.01;76.93
70314;BME280;71040;47.526;18.986;2024-01-30T13:01:14;101972.50;;;4.02;77.15
70314;BME280;71040;47.526;18.986;2024-01-30T13:06:17;101971.66;;;4.03;76.75
70314;BME280;71040;47.526;18.986;2024-01-30T13:11:17;101962.19;;;4.04;76.67
70314;BME280;71040;47.526;18.986;2024-01-30T13:16:18;101952.69;;;4.03;76.85
70314;BME280;71040;47.526;18.986;2024-01-30T13:21:21;101955.25;;;4.04;77.22
70314;BME280;71040;47.526;18.986;2024-01-30T13:26:24;101944.91;;;4.04;77.01
70314;BME280;71040;47.526;18.986;2024-01-30T13:31:27;101943.19;;;4.03;77.14
70314;BME280;71040;47.526;18.986;2024-01-30T13:36:30;101956.13;;;4.05;77.46
70314;BME280;71040;47.526;18.986;2024-01-30T13:41:30;101951.84;;;4.05;77.40
70314;BME280;71040;47.526;18.986;2024-01-30T13:46:31;101957.88;;;4.06;77.14
70314;BME280;71040;47.526;18.986;2024-01-30T13:51:33;101948.41;;;4.06;77.19
70314;BME280;71040;47.526;18.986;2024-01-30T13:56:34;101943.22;;;4.06;76.97
70314;BME280;71040;47.526;18.986;2024-01-30T14:01:39;101940.63;;;4.06;76.91
70314;BME280;71040;47.526;18.986;2024-01-30T14:06:42;101934.63;;;4.07;77.19
70314;BME280;71040;47.526;18.986;2024-01-30T14:11:47;101947.56;;;4.07;76.79
70314;BME280;71040;47.526;18.986;2024-01-30T14:16:47;101936.31;;;4.05;76.86
70314;BME280;71040;47.526;18.986;2024-01-30T14:21:48;101938.09;;;4.08;76.96
70314;BME280;71040;47.526;18.986;2024-01-30T14:26:50;101938.94;;;4.08;77.05
70314;BME280;71040;47.526;18.986;2024-01-30T14:31:51;101938.94;;;4.08;76.96
70314;BME280;71040;47.526;18.986;2024-01-30T14:36:51;101934.66;;;4.09;76.68
70314;BME280;71040;47.526;18.986;2024-01-30T14:41:54;101927.72;;;4.08;77.32
70314;BME280;71040;47.526;18.986;2024-01-30T14:46:57;101936.41;;;4.10;76.90
70314;BME280;71040;47.526;18.986;2024-01-30T14:51:57;101931.22;;;4.10;77.48
70314;BME280;71040;47.526;18.986;2024-01-30T14:56:59;101927.72;;;4.08;76.90
70314;BME280;71040;47.526;18.986;2024-01-30T15:01:59;101934.69;;;4.10;77.03
70314;BME280;71040;47.526;18.986;2024-01-30T15:07:00;101932.09;;;4.10;76.96
70314;BME280;71040;47.526;18.986;2024-01-30T15:12:01;101938.97;;;4.10;77.03
70314;BME280;71040;47.526;18.986;2024-01-30T15:17:02;101929.50;;;4.10;77.43
70314;BME280;71040;47.526;18.986;2024-01-30T15:22:02;101926.91;;;4.10;77.28
70314;BME280;71040;47.526;18.986;2024-01-30T15:27:03;101925.19;;;4.11;77.13
70314;BME280;71040;47.526;18.986;2024-01-30T15:32:03;101918.25;;;4.08;76.86
70314;BME280;71040;47.526;18.986;2024-01-30T15:37:06;101930.38;;;4.11;76.33
70314;BME280;71040;47.526;18.986;2024-01-30T15:42:07;101927.78;;;4.11;76.40
70314;BME280;71040;47.526;18.986;2024-01-30T15:47:10;101927.78;;;4.11;76.52
70314;BME280;71040;47.526;18.986;2024-01-30T15:52:11;101939.00;;;4.11;76.55
70314;BME280;71040;47.526;18.986;2024-01-30T15:57:14;101941.59;;;4.11;76.71
70314;BME280;71040;47.526;18.986;2024-01-30T16:02:14;101939.00;;;4.11;76.90
70314;BME280;71040;47.526;18.986;2024-01-30T16:07:15;101942.44;;;4.10;76.26
70314;BME280;71040;47.526;18.986;2024-01-30T16:12:15;101950.25;;;4.12;76.59
70314;BME280;71040;47.526;18.986;2024-01-30T16:17:16;101944.19;;;4.11;76.89
70314;BME280;71040;47.526;18.986;2024-01-30T16:22:18;101940.72;;;4.11;76.61
70314;BME280;71040;47.526;18.986;2024-01-30T16:27:19;101938.13;;;4.11;77.07
70314;BME280;71040;47.526;18.986;2024-01-30T16:32:21;101940.72;;;4.11;76.37
70314;BME280;71040;47.526;18.986;2024-01-30T16:37:24;101936.41;;;4.10;76.44
70314;BME280;71040;47.526;18.986;2024-01-30T16:42:25;101939.88;;;4.12;76.50
70314;BME280;71040;47.526;18.986;2024-01-30T16:47:25;101937.25;;;4.10;76.57
70314;BME280;71040;47.526;18.986;2024-01-30T16:52:26;101934.66;;;4.09;76.30
70314;BME280;71040;47.526;18.986;2024-01-30T16:57:29;101942.44;;;4.10;76.62
70314;BME280;71040;47.526;18.986;2024-01-30T17:02:31;101934.66;;;4.09;76.33
70314;BME280;71040;47.526;18.986;2024-01-30T17:07:32;101932.91;;;4.08;76.68
70314;BME280;71040;47.526;18.986;2024-01-30T17:12:35;101933.84;;;4.11;76.61
70314;BME280;71040;47.526;18.986;2024-01-30T17:17:35;101935.56;;;4.11;76.54
70314;BME280;71040;47.526;18.986;2024-01-30T17:22:36;101932.09;;;4.10;76.35
70314;BME280;71040;47.526;18.986;2024-01-30T17:27:37;101932.09;;;4.10;76.18
70314;BME280;71040;47.526;18.986;2024-01-30T17:32:37;101933.78;;;4.08;76.24
70314;BME280;71040;47.526;18.986;2024-01-30T17:37:37;101933.81;;;4.10;76.71
70314;BME280;71040;47.526;18.986;2024-01-30T17:42:38;101930.34;;;4.09;76.69
70314;BME280;71040;47.526;18.986;2024-01-30T17:47:39;101924.31;;;4.10;76.41
70314;BME280;71040;47.526;18.986;2024-01-30T17:52:39;101924.25;;;4.07;76.74
70314;BME280;71040;47.526;18.986;2024-01-30T17:57:39;101921.72;;;4.09;75.91
70314;BME280;71040;47.526;18.986;2024-01-30T18:02:43;101924.28;;;4.09;76.50
70314;BME280;71040;47.526;18.986;2024-01-30T18:07:46;101929.44;;;4.07;76.84
70314;BME280;71040;47.526;18.986;2024-01-30T18:12:46;101929.44;;;4.07;76.20
70314;BME280;71040;47.526;18.986;2024-01-30T18:17:47;101924.28;;;4.09;76.44
70314;BME280;71040;47.526;18.986;2024-01-30T18:22:52;101919.09;;;4.07;76.56
70314;BME280;71040;47.526;18.986;2024-01-30T18:27:53;101922.53;;;4.06;76.20
70314;BME280;71040;47.526;18.986;2024-01-30T18:32:56;101915.59;;;4.05;76.03
70314;BME280;71040;47.526;18.986;2024-01-30T18:37:58;101920.78;;;4.05;76.74
70314;BME280;71040;47.526;18.986;2024-01-30T18:43:06;101923.38;;;4.05;76.59
70314;BME280;71040;47.526;18.986;2024-01-30T18:48:09;101923.38;;;4.04;76.36
70314;BME280;71040;47.526;18.986;2024-01-30T18:53:09;101920.78;;;4.05;76.20
70314;BME280;71040;47.526;18.986;2024-01-30T18:58:10;101921.66;;;4.06;76.09
70314;BME280;71040;47.526;18.986;2024-01-30T19:03:11;101920.78;;;4.04;76.22
70314;BME280;71040;47.526;18.986;2024-01-30T19:08:11;101921.63;;;4.04;76.45
70314;BME280;71040;47.526;18.986;2024-01-30T19:13:16;101917.31;;;4.03;76.32
70314;BME280;71040;47.526;18.986;2024-01-30T19:18:23;101913.84;;;4.03;76.08
70314;BME280;71040;47.526;18.986;2024-01-30T19:23:24;101919.88;;;4.02;76.31
70314;BME280;71040;47.526;18.986;2024-01-30T19:28:31;101916.41;;;4.01;76.76
70314;BME280;71040;47.526;18.986;2024-01-30T19:33:35;101904.31;;;4.00;76.72
70314;BME280;71040;47.526;18.986;2024-01-30T19:38:37;101917.25;;;4.00;76.21
70314;BME280;71040;47.526;18.986;2024-01-30T19:43:38;101907.72;;;3.97;76.03
70314;BME280;71040;47.526;18.986;2024-01-30T19:48:38;101909.50;;;4.00;76.40
70314;BME280;71040;47.526;18.986;2024-01-30T19:53:39;101906.81;;;3.95;76.21
70314;BME280;71040;47.526;18.986;2024-01-30T19:58:39;101917.25;;;4.00;76.43
70314;BME280;71040;47.526;18.986;2024-01-30T20:03:39;101906.88;;;3.98;76.40
70314;BME280;71040;47.526;18.986;2024-01-30T20:08:42;101906.00;;;3.98;76.29
70314;BME280;71040;47.526;18.986;2024-01-30T20:13:42;101914.63;;;3.97;76.19
70314;BME280;71040;47.526;18.986;2024-01-30T20:18:43;101915.47;;;3.97;76.55
70314;BME280;71040;47.526;18.986;2024-01-30T20:23:43;101911.16;;;3.96;76.45
70314;BME280;71040;47.526;18.986;2024-01-30T20:28:44;101919.78;;;3.97;76.63
70314;BME280;71040;47.526;18.986;2024-01-30T20:33:44;101920.63;;;3.96;75.99
70314;BME280;71040;47.526;18.986;2024-01-30T20:38:47;101927.53;;;3.95;76.41
70314;BME280;71040;47.526;18.986;2024-01-30T20:43:50;101917.16;;;3.95;76.03
70314;BME280;71040;47.526;18.986;2024-01-30T20:48:52;101916.31;;;3.95;76.39
70314;BME280;71040;47.526;18.986;2024-01-30T20:53:56;101906.78;;;3.94;76.52
70314;BME280;71040;47.526;18.986;2024-01-30T20:58:59;101908.50;;;3.93;76.14
70314;BME280;71040;47.526;18.986;2024-01-30T21:03:59;101900.72;;;3.90;76.48
70314;BME280;71040;47.526;18.986;2024-01-30T21:09:01;101906.75;;;3.91;75.95
70314;BME280;71040;47.526;18.986;2024-01-30T21:14:06;101902.44;;;3.90;75.91
70314;BME280;71040;47.526;18.986;2024-01-30T21:19:08;101902.47;;;3.91;76.74
70314;BME280;71040;47.526;18.986;2024-01-30T21:24:12;101898.13;;;3.90;76.21
70314;BME280;71040;47.526;18.986;2024-01-30T21:29:12;101897.25;;;3.90;76.07
70314;BME280;71040;47.526;18.986;2024-01-30T21:34:13;101888.63;;;3.89;76.47
70314;BME280;71040;47.526;18.986;2024-01-30T21:39:14;101889.44;;;3.87;76.61
70314;BME280;71040;47.526;18.986;2024-01-30T21:44:14;101885.97;;;3.86;76.31
70314;BME280;71040;47.526;18.986;2024-01-30T21:49:15;101880.78;;;3.86;76.53
70314;BME280;71040;47.526;18.986;2024-01-30T21:54:18;101881.63;;;3.85;76.03
70314;BME280;71040;47.526;18.986;2024-01-30T21:59:23;101876.47;;;3.85;76.21
70314;BME280;71040;47.526;18.986;2024-01-30T22:04:23;101879.94;;;3.86;76.19
70314;BME280;71040;47.526;18.986;2024-01-30T22:09:26;101866.06;;;3.82;76.16
70314;BME280;71040;47.526;18.986;2024-01-30T22:14:27;101867.84;;;3.85;76.11
70314;BME280;71040;47.526;18.986;2024-01-30T22:19:27;101856.59;;;3.83;76.18
70314;BME280;71040;47.526;18.986;2024-01-30T22:24:28;101860.91;;;3.84;76.11
70314;BME280;71040;47.526;18.986;2024-01-30T22:29:28;101862.63;;;3.83;76.48
70314;BME280;71040;47.526;18.986;2024-01-30T22:34:33;101859.13;;;3.81;76.26
70314;BME280;71040;47.526;18.986;2024-01-30T22:39:33;101861.75;;;3.83;75.94
70314;BME280;71040;47.526;18.986;2024-01-30T22:44:34;101859.13;;;3.81;75.73
70314;BME280;71040;47.526;18.986;2024-01-30T22:49:36;101865.19;;;3.82;76.03
70314;BME280;71040;47.526;18.986;2024-01-30T22:54:37;101861.72;;;3.80;76.16
70314;BME280;71040;47.526;18.986;2024-01-30T22:59:37;101853.09;;;3.81;76.23
70314;BME280;71040;47.526;18.986;2024-01-30T23:04:40;101847.91;;;3.78;75.92
70314;BME280;71040;47.526;18.986;2024-01-30T23:09:43;101850.50;;;3.79;76.42
70314;BME280;71040;47.526;18.986;2024-01-30T23:14:44;101849.63;;;3.79;75.95
70314;BME280;71040;47.526;18.986;2024-01-30T23:19:44;101853.06;;;3.78;76.15
70314;BME280;71040;47.526;18.986;2024-01-30T23:24:45;101851.34;;;3.78;76.08
70314;BME280;71040;47.526;18.986;2024-01-30T23:29:48;101850.44;;;3.76;76.40
70314;BME280;71040;47.526;18.986;2024-01-30T23:34:53;101840.03;;;3.73;76.05
70314;BME280;71040;47.526;18.986;2024-01-30T23:39:53;101838.34;;;3.75;76.39
70314;BME280;71040;47.526;18.986;2024-01-30T23:44:53;101841.81;;;3.76;76.23
70314;BME280;71040;47.526;18.986;2024-01-30T23:49:54;101827.97;;;3.74;76.07
70314;BME280;71040;47.526;18.986;2024-01-30T23:54:54;101832.31;;;3.75;76.13
70314;BME280;71040;47.526;18.986;2024-01-30T23:59:55;101830.56;;;3.74;76.14
